Time;durP1;ratioP1;P1;durP2;ratioP2;P2;SDS_P1;SDS_P2;PMS_P1;PMS_P2;Temp;Humidity;BMP_temperature;BMP_pressure;BME280_temperature;BME280_humidity;BME280_pressure;Samples;Min_cycle;Max_cycle;Signal;HPM_P1;HPM_P2
2024/01/26 00:00:22;;;;;;;10.00;5.53;;;8.50;99.90;;;;;;7378663;19;20078;-72
2024/01/26 00:02:52;;;;;;;8.35;4.90;;;8.50;99.90;;;;;;7379106;19;20014;-71
2024/01/26 00:05:25;;;;;;;6.65;4.63;;;8.50;99.90;;;;;;7379288;19;20014;-71
2024/01/26 00:07:55;;;;;;;6.75;5.15;;;8.60;98.80;;;;;;7379061;19;20027;-70
2024/01/26 00:10:25;;;;;;;6.13;4.40;;;8.60;96.50;;;;;;7379301;19;20015;-71
2024/01/26 00:12:55;;;;;;;7.68;4.97;;;8.60;95.60;;;;;;7379165;19;20471;-71
2024/01/26 00:15:26;;;;;;;5.30;4.30;;;8.60;92.60;;;;;;7378805;19;20010;-71
2024/01/26 00:17:56;;;;;;;4.38;3.97;;;8.60;91.80;;;;;;7378752;19;20090;-70
2024/01/26 00:20:29;;;;;;;7.53;4.07;;;8.70;90.10;;;;;;7379301;19;20014;-71
2024/01/26 00:22:59;;;;;;;5.05;3.80;;;8.70;84.00;;;;;;7378494;19;20010;-71
2024/01/26 00:25:29;;;;;;;4.22;3.47;;;8.80;78.40;;;;;;7379095;19;20007;-71
2024/01/26 00:28:00;;;;;;;3.75;3.03;;;8.80;67.10;;;;;;7378892;19;20018;-71
2024/01/26 00:30:30;;;;;;;5.72;3.33;;;8.70;62.40;;;;;;7378694;19;20010;-70
2024/01/26 00:33:00;;;;;;;3.22;2.92;;;8.80;64.00;;;;;;7380703;19;20006;-71
2024/01/26 00:35:33;;;;;;;3.95;3.22;;;8.80;62.20;;;;;;7379096;19;20027;-72
2024/01/26 00:38:03;;;;;;;3.53;3.00;;;8.70;63.60;;;;;;7378936;19;20025;-71
2024/01/26 00:40:33;;;;;;;3.42;2.90;;;8.80;64.20;;;;;;7378155;19;20010;-70
2024/01/26 00:43:03;;;;;;;3.88;2.42;;;8.90;63.50;;;;;;7379184;19;20014;-71
2024/01/26 00:45:33;;;;;;;3.53;2.50;;;8.90;58.30;;;;;;7379070;19;20673;-71
2024/01/26 00:48:03;;;;;;;3.40;2.45;;;8.90;56.00;;;;;;7379213;19;20711;-70
2024/01/26 00:50:36;;;;;;;3.10;2.20;;;8.90;52.60;;;;;;7378300;19;20010;-71
2024/01/26 00:53:06;;;;;;;3.78;1.90;;;9.00;49.40;;;;;;7378899;19;20006;-71
2024/01/26 00:55:37;;;;;;;3.30;2.03;;;9.00;45.60;;;;;;7377923;19;20046;-71
2024/01/26 00:58:06;;;;;;;3.30;1.83;;;9.00;42.50;;;;;;7379520;19;20526;-71
2024/01/26 01:00:37;;;;;;;2.50;2.25;;;9.00;40.00;;;;;;7377066;19;20135;-71
2024/01/26 01:03:07;;;;;;;2.88;1.83;;;9.00;35.70;;;;;;7378433;19;20034;-71
2024/01/26 01:05:42;;;;;;;5.43;1.88;;;9.10;35.60;;;;;;7377025;19;20010;-71
2024/01/26 01:08:12;;;;;;;3.58;2.17;;;9.00;34.50;;;;;;7377459;19;20014;-71
2024/01/26 01:10:42;;;;;;;2.70;1.77;;;9.10;35.10;;;;;;7378280;19;20017;-71
2024/01/26 01:13:12;;;;;;;2.38;1.90;;;9.10;36.20;;;;;;7378694;19;20374;-71
2024/01/26 01:15:42;;;;;;;1.83;1.60;;;9.10;36.20;;;;;;7378629;19;20018;-71
2024/01/26 01:18:12;;;;;;;3.33;1.83;;;9.20;37.60;;;;;;7378509;19;20010;-71
2024/01/26 01:20:45;;;;;;;2.40;1.92;;;9.10;36.30;;;;;;7376230;19;20017;-71
2024/01/26 01:23:15;;;;;;;3.03;2.13;;;9.10;34.60;;;;;;7378310;19;20017;-71
2024/01/26 01:25:45;;;;;;;2.85;1.67;;;9.10;33.00;;;;;;7378889;19;20470;-71
2024/01/26 01:28:16;;;;;;;1.65;1.55;;;9.10;32.80;;;;;;7378643;19;20010;-71
2024/01/26 01:30:46;;;;;;;2.47;1.65;;;9.10;32.30;;;;;;7376860;19;20666;-71
2024/01/26 01:33:15;;;;;;;1.40;1.30;;;9.10;34.20;;;;;;7379285;19;20015;-71
2024/01/26 01:35:48;;;;;;;1.95;1.48;;;9.10;34.90;;;;;;7376748;19;20010;-71
2024/01/26 01:38:18;;;;;;;1.65;1.35;;;9.10;33.90;;;;;;7378382;19;20014;-71
2024/01/26 01:40:48;;;;;;;1.85;1.42;;;9.00;36.10;;;;;;7375912;19;20015;-71
2024/01/26 01:43:19;;;;;;;1.70;1.50;;;9.00;39.10;;;;;;7376118;19;20006;-71
2024/01/26 01:45:49;;;;;;;1.63;1.30;;;9.00;40.60;;;;;;7377081;19;20007;-71
2024/01/26 01:48:19;;;;;;;1.77;1.23;;;9.00;43.60;;;;;;7376743;19;20374;-71
2024/01/26 01:50:53;;;;;;;1.70;1.40;;;8.90;45.80;;;;;;7377771;19;20027;-70
2024/01/26 01:53:23;;;;;;;2.03;1.27;;;8.90;48.30;;;;;;7376987;19;20015;-71
2024/01/26 01:55:54;;;;;;;1.52;1.40;;;8.80;52.30;;;;;;7376646;19;20018;-71
2024/01/26 01:58:27;;;;;;;2.58;1.27;;;8.80;55.00;;;;;;7374240;19;20006;-71
2024/01/26 02:00:57;;;;;;;1.77;1.40;;;8.80;56.30;;;;;;7374024;19;20010;-71
2024/01/26 02:03:27;;;;;;;2.33;1.45;;;8.80;60.20;;;;;;7375849;19;20804;-71
2024/01/26 02:06:00;;;;;;;2.50;1.75;;;8.80;60.30;;;;;;7375041;19;20006;-71
2024/01/26 02:08:30;;;;;;;2.40;1.52;;;8.80;59.80;;;;;;7375742;19;20170;-71
2024/01/26 02:11:00;;;;;;;2.10;1.50;;;8.80;59.90;;;;;;7373947;19;20689;-70
2024/01/26 02:13:30;;;;;;;1.75;1.30;;;8.70;61.70;;;;;;7375495;19;20007;-70
2024/01/26 02:16:00;;;;;;;2.78;1.60;;;8.70;66.50;;;;;;7375646;19;20025;-70
2024/01/26 02:18:35;;;;;;;;;;;8.70;66.80;;;;;;7375956;19;20011;-70
2024/01/26 02:21:08;;;;;;;2.25;1.55;;;8.70;68.90;;;;;;7374072;19;19929;-70
2024/01/26 02:23:41;;;;;;;2.22;1.70;;;8.60;74.10;;;;;;7374937;19;20017;-70
2024/01/26 02:26:12;;;;;;;1.73;1.40;;;8.60;79.70;;;;;;7374692;19;20010;-71
2024/01/26 02:28:42;;;;;;;1.65;1.33;;;8.60;85.80;;;;;;7375029;19;20872;-70
2024/01/26 02:31:12;;;;;;;2.35;1.70;;;8.60;90.10;;;;;;7372901;19;20014;-71
2024/01/26 02:33:42;;;;;;;1.92;1.60;;;8.60;90.30;;;;;;7375715;19;20018;-71
2024/01/26 02:36:12;;;;;;;1.73;1.50;;;8.60;91.60;;;;;;7374025;19;20017;-71
2024/01/26 02:38:45;;;;;;;2.00;1.42;;;8.60;91.50;;;;;;7375765;19;20015;-70
2024/01/26 02:41:15;;;;;;;2.78;1.50;;;8.60;93.10;;;;;;7374869;19;20010;-70
2024/01/26 02:43:45;;;;;;;1.83;1.40;;;8.60;94.50;;;;;;7374735;19;20406;-71
2024/01/26 02:46:15;;;;;;;1.30;1.20;;;8.60;93.80;;;;;;7374276;19;20022;-70
2024/01/26 02:48:46;;;;;;;2.25;1.40;;;8.60;94.70;;;;;;7376000;19;20329;-70
2024/01/26 02:51:16;;;;;;;1.70;1.20;;;8.60;93.90;;;;;;7374291;19;20049;-71
2024/01/26 02:53:48;;;;;;;2.55;2.35;;;8.70;95.70;;;;;;7374230;19;20046;-70
2024/01/26 02:56:18;;;;;;;1.67;1.33;;;8.70;95.30;;;;;;7374885;19;20111;-71
2024/01/26 02:58:50;;;;;;;2.30;1.60;;;8.70;94.40;;;;;;7375344;19;20488;-71
2024/01/26 03:01:20;;;;;;;3.45;1.65;;;8.70;92.50;;;;;;7374951;19;20020;-71
2024/01/26 03:03:50;;;;;;;3.05;1.88;;;8.70;92.80;;;;;;7374601;19;20015;-71
2024/01/26 03:06:20;;;;;;;2.95;2.17;;;8.70;91.60;;;;;;7374276;19;20011;-70
2024/01/26 03:08:53;;;;;;;2.10;1.50;;;8.70;89.80;;;;;;7375113;19;20333;-71
2024/01/26 03:11:24;;;;;;;3.53;2.45;;;8.70;84.20;;;;;;7374291;19;20388;-71
2024/01/26 03:13:54;;;;;;;3.47;2.17;;;8.70;80.60;;;;;;7375283;19;20010;-71
2024/01/26 03:16:24;;;;;;;3.70;1.77;;;8.70;75.20;;;;;;7375670;19;20007;-69
2024/01/26 03:18:54;;;;;;;3.38;1.85;;;8.70;71.80;;;;;;7375831;19;20080;-70
2024/01/26 03:21:24;;;;;;;2.00;1.80;;;8.60;72.50;;;;;;7374593;19;20003;-70
2024/01/26 03:23:57;;;;;;;3.85;1.67;;;8.60;71.30;;;;;;7374948;19;19998;-70
2024/01/26 03:26:27;;;;;;;2.25;1.80;;;8.60;70.80;;;;;;7370226;19;20011;-70
2024/01/26 03:28:57;;;;;;;6.45;4.00;;;8.70;69.20;;;;;;7373067;19;20086;-70
2024/01/26 03:31:27;;;;;;;16.73;9.52;;;8.70;64.00;;;;;;7377167;19;20007;-71
2024/01/26 03:33:57;;;;;;;18.88;10.63;;;8.70;58.50;;;;;;7381796;19;20339;-70
2024/01/26 03:36:27;;;;;;;14.85;7.63;;;8.70;53.60;;;;;;7379636;19;20165;-70
2024/01/26 03:39:00;;;;;;;8.13;4.78;;;8.70;49.80;;;;;;7381730;19;20006;-70
2024/01/26 03:41:32;;;;;;;3.97;2.55;;;8.60;49.10;;;;;;7378877;19;20538;-71
2024/01/26 03:44:03;;;;;;;2.67;1.73;;;8.70;52.60;;;;;;7379639;19;20015;-70
2024/01/26 03:46:33;;;;;;;2.47;1.70;;;8.70;51.20;;;;;;7379186;19;20025;-69
2024/01/26 03:49:04;;;;;;;2.47;1.00;;;8.70;51.60;;;;;;7379855;19;20011;-69
2024/01/26 03:51:34;;;;;;;2.05;1.05;;;8.60;48.50;;;;;;7379077;19;20514;-71
2024/01/26 03:54:07;;;;;;;1.27;1.17;;;8.70;46.20;;;;;;7379787;19;20413;-71
2024/01/26 03:56:37;;;;;;;1.20;1.10;;;8.60;43.90;;;;;;7380156;19;20088;-70
2024/01/26 03:59:07;;;;;;;1.48;1.00;;;8.60;46.60;;;;;;7380395;19;20006;-70
2024/01/26 04:01:37;;;;;;;1.23;0.77;;;8.50;47.90;;;;;;7376833;19;20041;-70
2024/01/26 04:04:07;;;;;;;1.20;1.00;;;8.60;45.70;;;;;;7379516;19;20010;-70
2024/01/26 04:06:41;;;;;;;1.70;0.88;;;8.60;39.90;;;;;;7379934;19;20010;-70
2024/01/26 04:09:14;;;;;;;1.23;0.95;;;8.60;27.80;;;;;;7380070;19;20363;-71
2024/01/26 04:11:44;;;;;;;1.30;0.80;;;8.70;21.70;;;;;;7378392;19;20045;-71
2024/01/26 04:14:14;;;;;;;1.55;0.80;;;8.70;15.60;;;;;;7378626;19;20461;-71
2024/01/26 04:16:47;;;;;;;1.75;0.65;;;8.70;9.10;;;;;;7377328;19;20029;-71
2024/01/26 04:19:17;;;;;;;1.05;0.70;;;8.80;4.60;;;;;;7378839;19;20479;-71
2024/01/26 04:21:49;;;;;;;2.10;0.90;;;8.70;1.00;;;;;;7378833;19;20015;-70
2024/01/26 04:24:22;;;;;;;1.33;1.00;;;8.80;4.00;;;;;;7377016;19;20018;-70
2024/01/26 04:26:52;;;;;;;1.20;0.70;;;8.80;4.30;;;;;;7379302;19;20085;-71
2024/01/26 04:29:22;;;;;;;1.27;0.65;;;8.80;3.30;;;;;;7375445;19;20011;-70
2024/01/26 04:31:52;;;;;;;1.85;0.73;;;8.80;1.40;;;;;;7376364;19;20094;-71
2024/01/26 04:34:22;;;;;;;1.05;0.73;;;8.90;1.30;;;;;;7378202;19;20010;-70
2024/01/26 04:36:52;;;;;;;3.22;0.90;;;8.90;1.00;;;;;;7378993;19;20011;-70
2024/01/26 04:39:25;;;;;;;1.83;0.93;;;8.90;1.00;;;;;;7379442;19;20018;-70
2024/01/26 04:41:55;;;;;;;1.25;0.98;;;8.90;1.00;;;;;;7377130;19;20051;-69
2024/01/26 04:44:25;;;;;;;1.15;0.80;;;8.80;1.00;;;;;;7379682;19;20039;-70
2024/01/26 04:46:57;;;;;;;1.75;0.90;;;8.80;1.00;;;;;;7378920;19;20784;-70
2024/01/26 04:49:27;;;;;;;1.80;1.35;;;8.80;1.40;;;;;;7379981;19;20018;-70
2024/01/26 04:51:57;;;;;;;1.58;0.95;;;8.70;5.40;;;;;;7377695;19;20014;-69
2024/01/26 04:54:30;;;;;;;2.05;1.00;;;8.70;6.90;;;;;;7379788;19;20014;-69
2024/01/26 04:57:00;;;;;;;2.38;1.13;;;8.70;6.70;;;;;;7373615;19;20581;-70
2024/01/26 04:59:30;;;;;;;1.80;1.10;;;8.70;9.90;;;;;;7378797;19;20027;-70
2024/01/26 05:02:01;;;;;;;2.28;1.30;;;8.70;13.30;;;;;;7373881;19;20015;-70
2024/01/26 05:04:31;;;;;;;2.90;1.40;;;8.70;15.00;;;;;;7378502;19;20007;-71
2024/01/26 05:07:01;;;;;;;2.03;1.50;;;8.70;16.20;;;;;;7378167;19;20018;-70
2024/01/26 05:09:33;;;;;;;2.50;1.38;;;8.70;15.30;;;;;;7378304;19;20015;-71
2024/01/26 05:12:03;;;;;;;2.10;1.42;;;8.70;15.60;;;;;;7376729;19;20018;-70
2024/01/26 05:14:36;;;;;;;2.58;1.42;;;8.70;17.20;;;;;;7378045;19;20040;-70
2024/01/26 05:17:06;;;;;;;2.97;1.70;;;8.70;17.70;;;;;;7377240;19;20022;-70
2024/01/26 05:19:36;;;;;;;3.85;1.90;;;8.70;16.20;;;;;;7377103;19;20006;-70
2024/01/26 05:22:06;;;;;;;1.55;1.15;;;8.80;14.00;;;;;;7376346;19;20027;-70
2024/01/26 05:24:39;;;;;;;2.85;1.17;;;8.80;10.70;;;;;;7376958;19;20036;-70
2024/01/26 05:27:09;;;;;;;2.58;1.42;;;8.80;4.60;;;;;;7376200;19;20014;-70
2024/01/26 05:29:39;;;;;;;2.45;1.60;;;8.90;1.00;;;;;;7377329;19;20014;-70
2024/01/26 05:32:09;;;;;;;1.92;1.20;;;8.90;1.00;;;;;;7375448;19;20015;-70
2024/01/26 05:34:40;;;;;;;3.22;1.27;;;8.80;1.00;;;;;;7377522;19;20039;-71
2024/01/26 05:37:10;;;;;;;2.22;1.08;;;8.80;1.00;;;;;;7377376;19;20050;-70
2024/01/26 05:39:43;;;;;;;2.63;1.25;;;8.90;1.00;;;;;;7378276;19;20021;-71
2024/01/26 05:42:13;;;;;;;2.80;1.30;;;8.90;1.00;;;;;;7376226;19;20134;-71
2024/01/26 05:44:43;;;;;;;1.33;1.10;;;8.90;1.00;;;;;;7375977;19;20098;-70
2024/01/26 05:47:13;;;;;;;1.17;0.90;;;8.90;1.00;;;;;;7377208;19;20002;-70
2024/01/26 05:49:44;;;;;;;2.83;1.00;;;8.80;1.00;;;;;;7376123;19;20788;-71
2024/01/26 05:52:14;;;;;;;0.93;0.77;;;8.80;1.00;;;;;;7373436;19;20036;-71
2024/01/26 05:54:46;;;;;;;1.25;1.10;;;8.90;1.00;;;;;;7375407;19;20014;-71
2024/01/26 05:57:16;;;;;;;1.50;0.98;;;8.90;1.00;;;;;;7375825;19;20014;-70
2024/01/26 05:59:46;;;;;;;2.58;1.10;;;8.80;1.00;;;;;;7376598;19;20015;-70
2024/01/26 06:02:17;;;;;;;2.47;1.50;;;8.80;1.00;;;;;;7375455;19;20032;-70
2024/01/26 06:04:47;;;;;;;2.13;1.17;;;8.80;1.00;;;;;;7376303;19;20082;-70
2024/01/26 06:07:17;;;;;;;1.63;1.25;;;8.80;1.00;;;;;;7374915;19;20036;-70
2024/01/26 06:09:49;;;;;;;2.55;1.33;;;8.80;1.00;;;;;;7375265;19;20374;-70
2024/01/26 06:12:20;;;;;;;1.30;1.05;;;8.80;1.00;;;;;;7375676;19;20035;-70
2024/01/26 06:14:50;;;;;;;2.08;1.02;;;8.90;1.00;;;;;;7375834;19;20135;-69
2024/01/26 06:17:20;;;;;;;1.70;1.40;;;8.90;1.00;;;;;;7375529;19;20052;-70
2024/01/26 06:19:50;;;;;;;2.17;1.30;;;9.00;1.00;;;;;;7375492;19;20023;-69
2024/01/26 06:22:20;;;;;;;1.65;1.10;;;9.00;1.00;;;;;;7375006;19;20043;-71
2024/01/26 06:24:53;;;;;;;1.60;1.10;;;9.00;1.00;;;;;;7375265;19;20033;-70
2024/01/26 06:27:23;;;;;;;4.32;1.58;;;9.10;1.00;;;;;;7374809;19;20010;-69
2024/01/26 06:29:54;;;;;;;2.45;1.75;;;9.10;1.00;;;;;;7375430;19;20025;-70
2024/01/26 06:32:24;;;;;;;1.33;1.00;;;9.10;1.00;;;;;;7374541;19;20460;-70
2024/01/26 06:34:54;;;;;;;2.63;1.40;;;9.10;1.00;;;;;;7372956;19;20603;-71
2024/01/26 06:37:26;;;;;;;1.50;1.30;;;9.10;1.00;;;;;;7373599;19;20047;-70
2024/01/26 06:39:59;;;;;;;2.10;1.40;;;9.10;1.00;;;;;;7375951;19;20021;-70
2024/01/26 06:42:32;;;;;;;2.63;1.60;;;9.10;1.00;;;;;;7375462;19;20487;-70
2024/01/26 06:45:03;;;;;;;2.33;1.48;;;9.10;1.00;;;;;;7375169;19;20010;-70
2024/01/26 06:47:33;;;;;;;2.08;1.63;;;9.10;1.00;;;;;;7374675;19;20047;-70
2024/01/26 06:50:04;;;;;;;2.45;1.50;;;9.00;2.50;;;;;;7375843;19;20010;-70
2024/01/26 06:52:34;;;;;;;1.95;1.30;;;9.00;9.50;;;;;;7375954;19;20015;-71
2024/01/26 06:55:07;;;;;;;2.28;1.48;;;9.00;16.10;;;;;;7376327;19;20006;-70
2024/01/26 06:57:37;;;;;;;3.13;1.60;;;9.00;19.20;;;;;;7368617;19;20007;-71
2024/01/26 07:00:09;;;;;;;2.03;1.55;;;8.90;19.60;;;;;;7374201;19;20010;-71
2024/01/26 07:02:41;;;;;;;2.47;1.50;;;9.00;18.50;;;;;;7372964;19;20010;-70
2024/01/26 07:05:11;;;;;;;1.42;1.30;;;9.00;17.30;;;;;;7374242;19;20638;-70
2024/01/26 07:07:41;;;;;;;3.72;1.58;;;9.00;17.90;;;;;;7379098;19;20021;-70
2024/01/26 07:10:14;;;;;;;3.38;1.50;;;9.00;17.00;;;;;;7380205;19;20014;-71
2024/01/26 07:12:44;;;;;;;3.53;1.60;;;9.00;17.60;;;;;;7380406;19;20063;-71
2024/01/26 07:15:14;;;;;;;4.65;1.40;;;9.00;17.10;;;;;;7380086;19;20006;-70
2024/01/26 07:17:44;;;;;;;1.50;1.40;;;9.00;13.20;;;;;;7377256;19;20038;-71
2024/01/26 07:20:14;;;;;;;1.80;1.13;;;9.00;14.30;;;;;;7377196;19;20032;-71
2024/01/26 07:22:45;;;;;;;3.00;1.00;;;9.10;1.00;;;;;;7377305;19;20014;-70
2024/01/26 07:25:19;;;;;;;2.42;1.13;;;9.20;1.00;;;;;;7377469;19;20014;-71
2024/01/26 07:27:49;;;;;;;3.83;1.45;;;9.20;1.00;;;;;;7374933;19;20014;-70
2024/01/26 07:30:19;;;;;;;1.90;1.15;;;9.30;1.00;;;;;;7376609;19;20014;-70
2024/01/26 07:32:49;;;;;;;2.53;1.50;;;9.40;1.00;;;;;;7377517;19;20035;-71
2024/01/26 07:35:19;;;;;;;2.95;1.00;;;9.40;1.00;;;;;;7379499;19;20007;-70
2024/01/26 07:37:49;;;;;;;2.83;1.10;;;9.40;1.00;;;;;;7380291;19;20014;-70
2024/01/26 07:40:22;;;;;;;2.45;1.00;;;9.50;1.00;;;;;;7378793;19;20487;-70
2024/01/26 07:42:52;;;;;;;1.98;1.00;;;9.50;1.00;;;;;;7380631;19;20513;-70
2024/01/26 07:45:22;;;;;;;1.55;1.00;;;9.60;1.00;;;;;;7380884;19;20011;-70
2024/01/26 07:47:52;;;;;;;1.50;1.00;;;9.60;1.00;;;;;;7378348;19;20021;-71
2024/01/26 07:50:22;;;;;;;1.75;0.90;;;9.70;1.00;;;;;;7377609;19;20014;-70
2024/01/26 07:52:52;;;;;;;2.95;0.90;;;9.70;1.00;;;;;;7379254;19;20049;-70
2024/01/26 07:55:25;;;;;;;1.88;1.02;;;9.80;1.00;;;;;;7378213;19;20007;-71
2024/01/26 07:57:55;;;;;;;2.17;0.90;;;9.90;1.00;;;;;;7379475;19;20022;-71
2024/01/26 08:00:25;;;;;;;3.28;1.20;;;10.00;1.00;;;;;;7379028;19;20021;-72
2024/01/26 08:02:56;;;;;;;3.60;1.00;;;10.00;1.00;;;;;;7379889;19;20002;-71
2024/01/26 08:05:26;;;;;;;1.13;0.90;;;10.10;1.00;;;;;;7378525;19;20006;-70
2024/01/26 08:07:56;;;;;;;2.13;1.30;;;10.20;1.00;;;;;;7378017;19;20006;-71
2024/01/26 08:10:29;;;;;;;2.38;1.00;;;10.20;1.00;;;;;;7377461;19;20394;-71
2024/01/26 08:12:59;;;;;;;1.63;1.20;;;10.20;1.00;;;;;;7378865;19;20854;-71
2024/01/26 08:15:30;;;;;;;1.60;1.10;;;10.30;1.00;;;;;;7378725;19;20014;-69
2024/01/26 08:18:00;;;;;;;1.50;1.10;;;10.40;1.00;;;;;;7378014;19;20010;-70
2024/01/26 08:20:30;;;;;;;1.80;1.10;;;10.30;1.00;;;;;;7378291;19;20028;-69
2024/01/26 08:23:01;;;;;;;2.40;1.08;;;10.30;1.00;;;;;;7380351;19;20010;-70
2024/01/26 08:25:33;;;;;;;1.73;0.82;;;10.40;1.00;;;;;;7380347;19;20039;-71
2024/01/26 08:28:04;;;;;;;2.78;1.00;;;10.40;1.00;;;;;;7379489;19;20022;-70
2024/01/26 08:30:34;;;;;;;1.83;1.00;;;10.40;1.00;;;;;;7380188;19;20017;-70
2024/01/26 08:33:05;;;;;;;1.58;0.80;;;10.40;1.00;;;;;;7380050;19;20360;-71
2024/01/26 08:35:35;;;;;;;2.75;1.00;;;10.40;1.00;;;;;;7379474;19;20032;-71
2024/01/26 08:38:06;;;;;;;2.42;1.38;;;10.40;1.00;;;;;;7380440;19;20014;-70
2024/01/26 08:40:39;;;;;;;2.47;1.40;;;10.40;1.00;;;;;;7379176;19;20091;-70
2024/01/26 08:43:09;;;;;;;2.05;1.00;;;10.40;1.00;;;;;;7380167;19;20478;-71
2024/01/26 08:45:39;;;;;;;1.80;1.00;;;10.40;1.00;;;;;;7380500;19;20513;-71
2024/01/26 08:48:09;;;;;;;1.40;0.98;;;10.40;1.00;;;;;;7383808;19;20022;-70
2024/01/26 08:50:40;;;;;;;1.70;1.10;;;10.50;1.00;;;;;;7380875;19;20006;-70
2024/01/26 08:53:10;;;;;;;2.25;0.90;;;10.50;1.00;;;;;;7378959;19;20003;-70
2024/01/26 08:55:43;;;;;;;4.55;1.08;;;10.50;1.00;;;;;;7379442;19;20742;-71
2024/01/26 08:58:13;;;;;;;1.95;1.25;;;10.50;1.00;;;;;;7379028;19;20036;-71
2024/01/26 09:00:43;;;;;;;2.35;0.93;;;10.50;1.00;;;;;;7378153;19;20011;-75
2024/01/26 09:03:13;;;;;;;2.13;1.25;;;10.50;1.00;;;;;;7378265;19;20014;-75
2024/01/26 09:05:44;;;;;;;4.65;1.83;;;10.50;1.00;;;;;;7379527;19;20023;-75
2024/01/26 09:08:14;;;;;;;4.30;2.78;;;10.60;1.00;;;;;;7377678;19;20800;-75
2024/01/26 09:10:47;;;;;;;3.25;1.63;;;10.70;1.00;;;;;;7377776;19;20019;-74
2024/01/26 09:13:18;;;;;;;2.00;1.27;;;10.60;1.00;;;;;;7377506;19;20014;-74
2024/01/26 09:15:48;;;;;;;2.95;1.23;;;10.70;1.00;;;;;;7379016;19;20013;-74
2024/01/26 09:18:18;;;;;;;1.85;1.23;;;10.60;1.00;;;;;;7377293;19;20017;-74
2024/01/26 09:20:50;;;;;;;2.65;1.30;;;10.70;1.00;;;;;;7376389;19;20009;-73
2024/01/26 09:23:20;;;;;;;1.98;1.23;;;10.80;1.00;;;;;;7378749;19;20031;-73
2024/01/26 09:25:50;;;;;;;2.30;1.50;;;10.80;1.00;;;;;;7378217;19;20393;-74
2024/01/26 09:28:20;;;;;;;2.67;1.40;;;10.80;1.00;;;;;;7375470;19;20023;-74
2024/01/26 09:30:50;;;;;;;2.33;1.25;;;10.90;1.00;;;;;;7378663;19;20017;-74
2024/01/26 09:33:20;;;;;;;2.50;1.70;;;10.90;1.00;;;;;;7374608;19;20010;-74
2024/01/26 09:35:51;;;;;;;2.90;1.40;;;10.80;1.00;;;;;;7376233;19;20011;-74
2024/01/26 09:38:21;;;;;;;2.05;1.38;;;10.80;1.00;;;;;;7377796;19;20016;-74
2024/01/26 09:40:54;;;;;;;3.33;1.55;;;10.80;1.00;;;;;;7378400;19;20006;-74
2024/01/26 09:43:24;;;;;;;2.13;1.30;;;10.80;1.00;;;;;;7377837;19;20362;-74
2024/01/26 09:45:54;;;;;;;4.47;1.10;;;10.80;1.00;;;;;;7373738;19;20013;-74
2024/01/26 09:48:26;;;;;;;2.58;1.63;;;10.90;1.00;;;;;;7376885;19;20015;-74
2024/01/26 09:50:56;;;;;;;2.42;1.10;;;10.90;1.00;;;;;;7371781;19;20379;-74
2024/01/26 09:53:27;;;;;;;2.20;0.80;;;11.00;1.00;;;;;;7379308;19;20068;-76
2024/01/26 09:56:00;;;;;;;1.70;1.10;;;11.10;1.00;;;;;;7377263;19;20010;-72
2024/01/26 09:58:31;;;;;;;4.53;1.10;;;11.20;1.00;;;;;;7375955;19;20018;-76
2024/01/26 10:01:01;;;;;;;2.17;1.27;;;11.20;1.00;;;;;;7374579;19;20018;-76
2024/01/26 10:03:32;;;;;;;2.95;1.20;;;11.20;1.00;;;;;;7378185;19;20374;-76
2024/01/26 10:06:05;;;;;;;10.15;1.48;;;11.20;1.00;;;;;;7375449;19;20007;-71
2024/01/26 10:08:40;;;;;;;3.58;1.00;;;11.20;1.00;;;;;;7376389;19;20471;-70
2024/01/26 10:11:13;;;;;;;2.10;1.15;;;11.20;1.00;;;;;;7373828;19;20082;-70
2024/01/26 10:13:43;;;;;;;3.05;1.27;;;11.20;1.00;;;;;;7377719;19;20031;-71
2024/01/26 10:16:15;;;;;;;1.40;1.10;;;11.30;1.00;;;;;;7378226;19;20027;-70
2024/01/26 10:18:47;;;;;;;1.77;1.05;;;11.30;1.00;;;;;;7375357;19;20025;-71
2024/01/26 10:21:20;;;;;;;3.33;1.03;;;11.30;1.00;;;;;;7375978;19;20045;-70
2024/01/26 10:23:50;;;;;;;1.80;1.45;;;11.30;1.00;;;;;;7376544;19;20235;-70
2024/01/26 10:26:24;;;;;;;2.38;1.20;;;11.30;1.00;;;;;;7376466;19;20014;-70
2024/01/26 10:28:56;;;;;;;1.67;1.13;;;11.30;1.00;;;;;;7375897;19;20032;-70
2024/01/26 10:31:27;;;;;;;2.75;1.38;;;11.40;1.00;;;;;;7376133;19;20082;-70
2024/01/26 10:33:59;;;;;;;2.25;1.20;;;11.40;1.00;;;;;;7377570;19;20019;-70
2024/01/26 10:36:30;;;;;;;1.58;1.10;;;11.40;1.00;;;;;;7372614;19;20015;-70
2024/01/26 10:39:02;;;;;;;2.58;0.85;;;11.40;1.00;;;;;;7375479;19;20077;-70
2024/01/26 10:41:39;;;;;;;2.75;1.17;;;11.40;1.00;;;;;;7380053;19;20013;-71
2024/01/26 10:44:10;;;;;;;1.70;1.15;;;11.40;1.00;;;;;;7382190;19;20022;-71
2024/01/26 10:46:41;;;;;;;4.78;1.88;;;11.40;1.00;;;;;;7382627;19;20014;-70
2024/01/26 10:49:13;;;;;;;1.80;1.15;;;11.50;1.00;;;;;;7382403;19;20006;-70
2024/01/26 10:51:44;;;;;;;2.35;1.10;;;11.40;1.00;;;;;;7381477;19;20006;-70
2024/01/26 10:54:17;;;;;;;3.20;1.77;;;11.40;1.00;;;;;;7382188;19;20002;-70
2024/01/26 10:56:50;;;;;;;2.03;1.38;;;11.40;1.00;;;;;;7381278;19;20023;-70
2024/01/26 10:59:20;;;;;;;1.63;1.13;;;11.50;1.00;;;;;;7381971;19;20754;-70
2024/01/26 11:01:50;;;;;;;1.92;1.05;;;11.50;1.00;;;;;;7380747;19;20104;-70
2024/01/26 11:04:21;;;;;;;2.97;1.25;;;11.60;1.00;;;;;;7381289;19;20007;-71
2024/01/26 11:06:51;;;;;;;2.55;1.45;;;11.60;1.00;;;;;;7379779;19;20011;-70
2024/01/26 11:09:22;;;;;;;2.25;0.90;;;11.60;1.00;;;;;;7380164;19;20475;-71
2024/01/26 11:11:55;;;;;;;2.13;1.63;;;11.60;1.00;;;;;;7379750;19;20034;-72
2024/01/26 11:14:30;;;;;;;8.00;6.13;;;11.60;1.00;;;;;;7381107;19;20022;-71
2024/01/26 11:17:11;;;;;;;2.65;1.08;;;11.60;1.00;;;;;;7380788;19;20074;-71
2024/01/26 11:19:41;;;;;;;1.65;1.15;;;11.60;1.00;;;;;;7381460;19;20081;-71
2024/01/26 11:22:11;;;;;;;1.90;0.95;;;11.60;1.00;;;;;;7380424;19;20007;-71
2024/01/26 11:24:45;;;;;;;2.00;1.00;;;11.60;1.00;;;;;;7381154;19;20520;-72
2024/01/26 11:27:17;;;;;;;2.70;1.30;;;11.50;1.00;;;;;;7378248;19;20015;-71
2024/01/26 11:29:47;;;;;;;1.75;1.00;;;11.50;1.00;;;;;;7380341;19;20046;-71
2024/01/26 11:32:20;;;;;;;1.13;0.82;;;11.50;1.00;;;;;;7374559;19;20434;-71
2024/01/26 11:35:02;;;;;;;3.30;1.45;;;11.50;1.00;;;;;;7379286;19;20328;-71
2024/01/26 11:37:34;;;;;;;1.55;1.00;;;11.50;1.00;;;;;;7380570;19;20493;-71
2024/01/26 11:40:05;;;;;;;1.85;1.00;;;11.50;1.00;;;;;;7378439;19;20025;-71
2024/01/26 11:42:38;;;;;;;1.42;1.00;;;11.50;1.00;;;;;;7378113;19;20017;-71
2024/01/26 11:45:11;;;;;;;1.65;1.00;;;11.50;1.00;;;;;;7378560;19;20038;-71
2024/01/26 11:47:42;;;;;;;1.60;0.90;;;11.50;1.00;;;;;;7378626;19;20014;-70
2024/01/26 11:50:14;;;;;;;2.00;1.20;;;11.50;1.00;;;;;;7379930;19;20006;-71
2024/01/26 11:52:44;;;;;;;2.60;1.08;;;11.50;1.00;;;;;;7379224;19;20035;-72
2024/01/26 11:55:16;;;;;;;1.52;1.10;;;11.40;1.00;;;;;;7380032;19;20090;-71
2024/01/26 11:57:49;;;;;;;12.38;1.98;;;11.40;1.00;;;;;;7378889;19;20638;-71
2024/01/26 12:00:19;;;;;;;2.67;1.10;;;11.30;1.00;;;;;;7380031;19;20045;-71
2024/01/26 12:02:50;;;;;;;2.05;1.30;;;11.20;1.00;;;;;;7379629;19;20014;-71
2024/01/26 12:05:20;;;;;;;2.35;1.20;;;11.20;1.00;;;;;;7379433;19;20074;-72
2024/01/26 12:07:51;;;;;;;2.03;1.20;;;11.20;1.00;;;;;;7378764;19;20711;-72
2024/01/26 12:10:23;;;;;;;1.83;1.20;;;11.20;1.00;;;;;;7377473;19;20011;-71
2024/01/26 12:12:55;;;;;;;1.58;1.10;;;11.20;1.00;;;;;;7379510;19;20014;-71
2024/01/26 12:15:30;;;;;;;1.95;1.15;;;11.20;1.00;;;;;;7378862;19;20014;-70
2024/01/26 12:18:01;;;;;;;2.25;1.45;;;11.20;1.00;;;;;;7379693;19;20026;-71
2024/01/26 12:20:31;;;;;;;4.80;1.92;;;11.20;1.00;;;;;;7377387;19;21522;-70
2024/01/26 12:23:01;;;;;;;1.88;1.05;;;11.30;1.00;;;;;;7379872;19;20482;-71
2024/01/26 12:25:31;;;;;;;3.05;1.30;;;11.30;1.00;;;;;;7377567;19;20031;-71
2024/01/26 12:28:05;;;;;;;2.10;1.15;;;11.30;1.00;;;;;;7379902;19;23050;-70
2024/01/26 12:30:35;;;;;;;2.23;1.37;;;11.30;1.00;;;;;;7377597;19;20459;-70
2024/01/26 12:33:09;;;;;;;5.30;1.65;;;11.30;1.00;;;;;;7377117;19;20018;-71
2024/01/26 12:35:40;;;;;;;1.67;1.08;;;11.30;1.00;;;;;;7377290;19;20014;-70
2024/01/26 12:38:11;;;;;;;6.53;1.17;;;11.30;1.00;;;;;;7378917;19;20474;-71
2024/01/26 12:40:38;;;;;;;2.28;1.20;;;11.30;1.00;;;;;;7375325;19;20528;-70
2024/01/26 12:43:11;;;;;;;3.20;1.35;;;11.40;1.00;;;;;;7379783;19;20018;-70
2024/01/26 12:45:42;;;;;;;1.75;0.90;;;11.40;1.00;;;;;;7373485;19;20027;-71
2024/01/26 12:48:12;;;;;;;1.27;0.77;;;11.50;1.00;;;;;;7379901;19;20474;-71
2024/01/26 12:50:42;;;;;;;2.55;1.08;;;11.50;1.00;;;;;;7380454;19;20014;-71
2024/01/26 12:53:12;;;;;;;3.25;0.70;;;11.50;1.00;;;;;;7378790;19;20014;-71
2024/01/26 12:55:42;;;;;;;1.98;0.68;;;11.50;1.00;;;;;;7378559;19;20667;-71
2024/01/26 12:58:17;;;;;;;1.65;0.90;;;11.40;1.00;;;;;;7379352;19;20015;-71
2024/01/26 13:00:48;;;;;;;2.33;1.00;;;11.40;1.00;;;;;;7380064;19;20408;-71
2024/01/26 13:03:18;;;;;;;2.00;0.75;;;11.30;1.00;;;;;;7376987;19;20462;-71
2024/01/26 13:05:51;;;;;;;1.52;0.85;;;11.30;1.00;;;;;;7376708;19;20003;-71
2024/01/26 13:08:21;;;;;;;1.77;0.77;;;11.30;1.00;;;;;;7378040;19;20022;-71
2024/01/26 13:10:52;;;;;;;6.22;3.45;;;11.30;1.00;;;;;;7378494;19;20018;-72
2024/01/26 13:13:25;;;;;;;2.58;1.30;;;11.40;1.00;;;;;;7378125;19;20014;-72
2024/01/26 13:15:55;;;;;;;2.93;1.10;;;11.40;1.00;;;;;;7377503;19;20006;-74
2024/01/26 13:18:26;;;;;;;4.40;1.00;;;11.40;1.00;;;;;;7378228;19;20010;-71